createdAt,value
2017-09-09T00:00:53.638Z,76.87
2017-09-09T00:01:53.024Z,75.74
2017-09-09T00:02:53.092Z,76.31
2017-09-09T00:03:52.428Z,75.98
2017-09-09T00:04:52.473Z,75.66
2017-09-09T00:05:52.481Z,77.17
2017-09-09T00:06:52.439Z,76.21
2017-09-09T00:07:52.489Z,75.72
2017-09-09T00:08:52.439Z,76.07
2017-09-09T00:09:52.498Z,76.26
2017-09-09T00:10:52.472Z,76.70
2017-09-09T00:11:52.524Z,76.18
2017-09-09T00:12:52.476Z,75.57
2017-09-09T00:13:52.531Z,75.98
2017-09-09T00:14:52.478Z,76.13
2017-09-09T00:15:52.520Z,76.50
2017-09-09T00:16:52.448Z,78.37
2017-09-09T00:17:53.894Z,78.16
2017-09-09T00:18:53.778Z,76.91
2017-09-09T00:19:53.212Z,79.35
2017-09-09T00:20:52.543Z,80.58
2017-09-09T00:21:52.480Z,80.56
2017-09-09T00:22:52.520Z,79.32
2017-09-09T00:23:52.567Z,80.44
2017-09-09T00:24:52.510Z,80.40
2017-09-09T00:25:52.551Z,78.40
2017-09-09T00:26:52.600Z,77.70
2017-09-09T00:27:52.550Z,78.52
2017-09-09T00:28:52.497Z,78.88
2017-09-09T00:29:52.598Z,78.20
2017-09-09T00:30:52.580Z,78.41
2017-09-09T00:31:52.521Z,78.38
2017-09-09T00:32:52.607Z,77.90
2017-09-09T00:33:52.550Z,77.33
2017-09-09T00:34:53.738Z,76.44
2017-09-09T00:35:53.829Z,77.09
2017-09-09T00:36:53.295Z,75.71
2017-09-09T00:37:53.428Z,75.50
2017-09-09T00:38:52.576Z,77.02
2017-09-09T00:39:52.628Z,75.69
2017-09-09T00:40:52.772Z,76.51
2017-09-09T00:41:52.613Z,76.62
2017-09-09T00:42:52.666Z,75.57
2017-09-09T00:43:52.710Z,76.57
2017-09-09T00:44:52.555Z,76.78
2017-09-09T00:45:52.599Z,76.87
2017-09-09T00:46:52.751Z,76.57
2017-09-09T00:47:52.608Z,75.21
2017-09-09T00:48:52.563Z,74.75
2017-09-09T00:49:52.554Z,74.75
2017-09-09T00:50:53.904Z,74.82
2017-09-09T00:51:53.858Z,74.63
2017-09-09T00:52:54.010Z,76.01
2017-09-09T00:53:53.376Z,74.61
2017-09-09T00:54:53.237Z,74.63
2017-09-09T00:55:52.604Z,75.19
2017-09-09T00:56:52.661Z,75.06
2017-09-09T00:57:52.812Z,75.15
2017-09-09T00:58:52.660Z,75.86
2017-09-09T00:59:52.610Z,75.60
2017-09-09T01:03:16.732Z,74.90
2017-09-09T01:03:18.598Z,74.10
2017-09-09T01:03:19.605Z,74.56
2017-09-09T01:05:52.853Z,74.99
2017-09-09T01:05:54.467Z,75.27
2017-09-09T01:05:56.091Z,75.12
2017-09-09T01:08:32.131Z,75.06
2017-09-09T01:08:33.957Z,74.24
2017-09-09T01:08:52.705Z,74.21
2017-09-09T01:11:46.888Z,74.58
2017-09-09T01:11:48.306Z,75.46
2017-09-09T01:11:52.727Z,74.79
2017-09-09T01:14:32.280Z,75.52
2017-09-09T01:14:34.103Z,75.68
2017-09-09T01:14:52.655Z,75.41
2017-09-09T01:17:48.058Z,75.12
2017-09-09T01:17:49.375Z,76.04
2017-09-09T01:17:52.693Z,74.24
2017-09-09T01:20:31.883Z,74.21
2017-09-09T01:20:33.393Z,74.89
2017-09-09T01:20:52.760Z,74.17
2017-09-09T01:23:52.886Z,73.75
2017-09-09T01:23:54.819Z,74.36
2017-09-09T01:23:56.036Z,74.61
2017-09-09T01:27:08.300Z,73.93
2017-09-09T01:27:09.520Z,74.76
2017-09-09T01:27:10.631Z,74.12
2017-09-09T01:29:53.986Z,74.04
2017-09-09T01:29:55.302Z,73.75
2017-09-09T01:29:56.314Z,73.83
2017-09-09T01:32:32.809Z,73.97
2017-09-09T01:32:34.037Z,73.79
2017-09-09T01:32:52.780Z,73.60
2017-09-09T01:35:54.946Z,74.23
2017-09-09T01:35:56.162Z,74.31
2017-09-09T01:35:57.074Z,74.26
2017-09-09T01:39:08.134Z,74.19
2017-09-09T01:39:09.551Z,74.20
2017-09-09T01:39:10.460Z,73.52
2017-09-09T01:41:54.932Z,74.69
2017-09-09T01:41:56.768Z,74.08
2017-09-09T01:41:57.778Z,74.45
2017-09-09T01:45:08.286Z,73.99
2017-09-09T01:45:10.109Z,73.76
2017-09-09T01:45:11.234Z,74.25
2017-09-09T01:47:45.803Z,73.51
2017-09-09T01:47:47.023Z,73.94
2017-09-09T01:47:52.851Z,74.27
2017-09-09T01:51:03.225Z,73.75
2017-09-09T01:51:04.276Z,74.50
2017-09-09T01:51:05.492Z,74.17
2017-09-09T01:53:50.845Z,75.55
2017-09-09T01:53:51.854Z,74.59
2017-09-09T01:53:53.276Z,75.08
2017-09-09T01:57:04.151Z,75.53
2017-09-09T01:57:05.294Z,74.46
2017-09-09T01:57:06.515Z,72.92
2017-09-09T01:59:55.006Z,74.24
2017-09-09T01:59:56.521Z,74.48
2017-09-09T01:59:57.939Z,73.65
2017-09-09T02:00:52.808Z,74.88
2017-09-09T02:01:54.077Z,74.80
2017-09-09T02:02:54.130Z,74.90
2017-09-09T02:03:53.493Z,75.94
2017-09-09T02:04:52.836Z,75.82
2017-09-09T02:05:52.888Z,74.85
2017-09-09T02:06:52.844Z,75.51
2017-09-09T02:07:52.892Z,75.46
2017-09-09T02:08:52.842Z,75.56
2017-09-09T02:09:52.891Z,75.81
2017-09-09T02:10:52.864Z,76.53
2017-09-09T02:11:52.880Z,76.13
2017-09-09T02:12:52.831Z,76.64
2017-09-09T02:13:52.889Z,76.21
2017-09-09T02:14:52.838Z,75.96
2017-09-09T02:15:52.882Z,75.72
2017-09-09T02:16:52.933Z,75.32
2017-09-09T02:17:52.878Z,76.03
2017-09-09T02:18:52.923Z,75.38
2017-09-09T02:19:54.274Z,75.23
2017-09-09T02:20:53.522Z,75.76
2017-09-09T02:21:53.567Z,75.21
2017-09-09T02:22:52.906Z,75.26
2017-09-09T02:23:52.861Z,75.04
2017-09-09T02:24:52.994Z,74.81
2017-09-09T02:25:52.962Z,74.89
2017-09-09T02:26:52.912Z,75.70
2017-09-09T02:27:52.960Z,75.67
2017-09-09T02:28:52.910Z,75.53
2017-09-09T02:29:52.982Z,75.29
2017-09-09T02:30:52.957Z,75.68
2017-09-09T02:31:52.917Z,75.46
2017-09-09T02:32:52.973Z,76.25
2017-09-09T02:33:52.916Z,75.27
2017-09-09T02:34:52.975Z,75.00
2017-09-09T02:35:53.830Z,75.10
2017-09-09T02:36:54.199Z,74.91
2017-09-09T02:37:53.647Z,74.94
2017-09-09T02:38:53.693Z,74.61
2017-09-09T02:39:52.934Z,74.78
2017-09-09T02:40:52.973Z,75.15
2017-09-09T02:41:53.026Z,75.73
2017-09-09T02:42:53.069Z,75.34
2017-09-09T02:43:53.019Z,74.96
2017-09-09T02:44:52.958Z,75.14
2017-09-09T02:45:53.033Z,75.59
2017-09-09T02:46:52.998Z,74.90
2017-09-09T02:47:52.956Z,75.82
2017-09-09T02:48:53.009Z,74.46
2017-09-09T02:49:52.967Z,74.67
2017-09-09T02:50:53.021Z,74.73
2017-09-09T02:51:52.981Z,74.98
2017-09-09T02:52:53.027Z,74.41
2017-09-09T02:53:53.066Z,74.89
2017-09-09T02:54:53.018Z,75.42
2017-09-09T02:55:54.281Z,75.24
2017-09-09T02:56:53.624Z,74.30
2017-09-09T02:57:52.997Z,75.25
2017-09-09T02:58:53.044Z,74.24
2017-09-09T02:59:52.996Z,75.07
2017-09-09T03:00:53.049Z,74.97
2017-09-09T03:01:53.026Z,74.87
2017-09-09T03:02:53.075Z,75.18
2017-09-09T03:03:53.020Z,75.05
2017-09-09T03:04:53.063Z,75.22
2017-09-09T03:05:53.014Z,75.03
2017-09-09T03:06:53.066Z,74.85
2017-09-09T03:07:53.212Z,74.51
2017-09-09T03:08:53.319Z,75.08
2017-09-09T03:09:53.070Z,74.90
2017-09-09T03:10:54.430Z,74.43
2017-09-09T03:11:54.379Z,74.91
2017-09-09T03:12:54.332Z,74.95
2017-09-09T03:13:53.675Z,74.86
2017-09-09T03:14:53.724Z,75.23
2017-09-09T03:15:53.066Z,74.83
2017-09-09T03:16:53.105Z,74.99
2017-09-09T03:17:53.154Z,74.62
2017-09-09T03:18:53.094Z,74.78
2017-09-09T03:19:53.345Z,75.04
2017-09-09T03:20:53.096Z,75.16
2017-09-09T03:21:53.155Z,75.64
2017-09-09T03:22:53.103Z,75.42
2017-09-09T03:23:53.161Z,75.00
2017-09-09T03:24:53.120Z,75.55
2017-09-09T03:25:53.187Z,74.88
2017-09-09T03:26:53.139Z,75.06
2017-09-09T03:27:53.091Z,75.74
2017-09-09T03:28:45.428Z,75.74
2017-09-09T03:31:00.792Z,75.42
2017-09-09T03:31:01.704Z,75.65
2017-09-09T03:31:03.132Z,75.57
2017-09-09T03:31:53.153Z,75.43
2017-09-09T03:32:54.408Z,75.81
2017-09-09T03:33:53.150Z,75.96
2017-09-09T03:34:53.186Z,76.25
2017-09-09T03:35:53.134Z,75.91
2017-09-09T03:36:53.181Z,75.74
2017-09-09T03:37:53.153Z,76.89
2017-09-09T03:38:53.121Z,75.82
2017-09-09T03:39:53.174Z,76.53
2017-09-09T03:40:53.154Z,76.42
2017-09-09T03:41:53.123Z,76.31
2017-09-09T03:42:53.157Z,76.50
2017-09-09T03:43:53.198Z,76.59
2017-09-09T03:44:53.175Z,76.47
2017-09-09T03:45:54.333Z,76.38
2017-09-09T03:46:54.381Z,76.17
2017-09-09T03:47:53.827Z,76.41
2017-09-09T03:48:53.162Z,76.88
2017-09-09T03:49:53.204Z,76.65
2017-09-09T03:50:53.247Z,76.70
2017-09-09T03:51:53.193Z,76.51
2017-09-09T03:52:53.233Z,76.57
2017-09-09T03:53:53.175Z,76.51
2017-09-09T03:54:53.223Z,76.68
2017-09-09T03:55:53.258Z,76.68
2017-09-09T03:56:53.215Z,76.73
2017-09-09T03:57:53.172Z,76.60
2017-09-09T03:58:53.217Z,76.61
2017-09-09T03:59:53.282Z,77.13
2017-09-09T04:00:53.240Z,77.26
2017-09-09T04:01:53.186Z,76.79
2017-09-09T04:02:54.433Z,76.89
2017-09-09T04:03:53.866Z,77.28
2017-09-09T04:04:53.807Z,77.13
2017-09-09T04:05:53.853Z,77.01
2017-09-09T04:06:53.192Z,77.30
2017-09-09T04:07:53.239Z,77.98
2017-09-09T04:08:53.274Z,79.60
2017-09-09T04:09:53.306Z,77.82
2017-09-09T04:10:53.247Z,77.29
2017-09-09T04:11:53.298Z,77.83
2017-09-09T04:12:53.266Z,77.87
2017-09-09T04:13:53.340Z,77.79
2017-09-09T04:14:53.299Z,77.96
2017-09-09T04:15:53.288Z,77.99
2017-09-09T04:16:53.262Z,77.85
2017-09-09T04:17:53.305Z,77.81
2017-09-09T04:18:53.348Z,77.51
2017-09-09T04:19:53.317Z,77.60
2017-09-09T04:20:54.471Z,77.92
2017-09-09T04:21:54.519Z,78.28
2017-09-09T04:22:54.588Z,77.79
2017-09-09T04:23:54.032Z,77.89
2017-09-09T04:24:53.263Z,79.03
2017-09-09T04:25:53.291Z,79.89
2017-09-09T04:26:53.303Z,80.18
2017-09-09T04:27:53.349Z,80.09
2017-09-09T04:28:53.382Z,80.13
2017-09-09T04:29:53.332Z,80.14
2017-09-09T04:30:53.376Z,80.21
2017-09-09T04:31:53.324Z,80.34
2017-09-09T04:32:53.370Z,80.32
2017-09-09T04:33:53.343Z,79.86
2017-09-09T04:34:53.301Z,80.78
2017-09-09T04:35:53.382Z,81.14
2017-09-09T04:36:53.341Z,81.36
2017-09-09T04:37:54.631Z,78.99
2017-09-09T04:38:54.597Z,81.05
2017-09-09T04:39:53.975Z,81.85
2017-09-09T04:40:54.067Z,82.60
2017-09-09T04:41:53.332Z,82.70
2017-09-09T04:42:53.395Z,82.53
2017-09-09T04:43:53.390Z,81.75
2017-09-09T04:44:53.426Z,81.72
2017-09-09T04:45:53.421Z,80.91
2017-09-09T04:46:53.395Z,82.19
2017-09-09T04:47:53.386Z,82.69
2017-09-09T04:48:53.358Z,81.77
2017-09-09T04:49:53.436Z,82.47
2017-09-09T04:50:53.420Z,81.57
2017-09-09T04:51:53.356Z,81.30
2017-09-09T04:52:53.394Z,83.16
2017-09-09T04:53:53.388Z,82.12
2017-09-09T04:54:54.569Z,81.83
2017-09-09T04:55:53.957Z,82.87
2017-09-09T04:56:54.004Z,81.46
2017-09-09T04:57:54.070Z,81.34
2017-09-09T04:58:53.426Z,82.06
2017-09-09T04:59:53.378Z,81.97
2017-09-09T05:00:53.458Z,81.34
2017-09-09T05:01:53.529Z,81.24
2017-09-09T05:02:53.487Z,81.54
2017-09-09T05:03:53.432Z,80.92
2017-09-09T05:04:53.493Z,80.36
2017-09-09T05:05:53.462Z,80.69
2017-09-09T05:06:53.506Z,80.02
2017-09-09T05:07:53.523Z,80.11
2017-09-09T05:08:53.405Z,79.88
2017-09-09T05:09:53.478Z,80.82
2017-09-09T05:10:53.461Z,79.46
2017-09-09T05:11:54.752Z,80.24
2017-09-09T05:12:54.718Z,80.36
2017-09-09T05:13:54.075Z,79.58
2017-09-09T05:14:54.088Z,79.66
2017-09-09T05:15:53.462Z,80.49
2017-09-09T05:16:54.148Z,81.28
2017-09-09T05:17:53.548Z,80.33
2017-09-09T05:18:53.545Z,80.12
2017-09-09T05:19:53.557Z,80.53
2017-09-09T05:20:53.511Z,80.71
2017-09-09T05:21:53.482Z,81.00
2017-09-09T05:22:53.557Z,80.62
2017-09-09T05:23:53.524Z,80.71
2017-09-09T05:24:53.498Z,79.97
2017-09-09T05:25:53.496Z,81.33
2017-09-09T05:26:53.482Z,81.36
2017-09-09T05:27:53.461Z,81.64
2017-09-09T05:28:54.738Z,81.91
2017-09-09T05:29:54.735Z,81.61
2017-09-09T05:30:57.791Z,82.24
2017-09-09T05:31:53.502Z,83.26
2017-09-09T05:32:54.808Z,81.61
2017-09-09T05:33:53.515Z,82.39
2017-09-09T05:34:53.524Z,83.47
2017-09-09T05:35:53.556Z,83.59
2017-09-09T05:36:53.526Z,82.94
2017-09-09T05:37:53.543Z,83.72
2017-09-09T05:38:53.639Z,84.15
2017-09-09T05:39:53.589Z,85.58
2017-09-09T05:40:53.625Z,86.29
2017-09-09T05:41:53.524Z,85.01
2017-09-09T05:42:53.595Z,85.14
2017-09-09T05:43:53.551Z,85.34
2017-09-09T05:44:53.630Z,85.91
2017-09-09T05:45:53.557Z,86.58
2017-09-09T05:46:53.535Z,86.07
2017-09-09T05:47:54.819Z,84.74
2017-09-09T05:48:54.258Z,85.44
2017-09-09T05:49:53.590Z,84.28
2017-09-09T05:50:53.550Z,84.64
2017-09-09T05:51:53.545Z,85.44
2017-09-09T05:52:53.606Z,86.46
2017-09-09T05:53:53.551Z,86.03
2017-09-09T05:54:53.615Z,85.42
2017-09-09T05:55:53.582Z,85.04
2017-09-09T05:56:53.583Z,84.50
2017-09-09T05:57:53.641Z,83.68
2017-09-09T05:58:53.608Z,83.61
2017-09-09T05:59:53.588Z,84.49
2017-09-09T06:00:53.641Z,84.34
2017-09-09T06:01:53.630Z,83.27
2017-09-09T06:02:53.668Z,84.03
2017-09-09T06:03:53.620Z,85.31
2017-09-09T06:04:54.869Z,85.36
2017-09-09T06:05:54.216Z,84.95
2017-09-09T06:06:54.253Z,81.58
2017-09-09T06:07:53.589Z,81.01
2017-09-09T06:08:53.627Z,81.46
2017-09-09T06:09:53.671Z,82.89
2017-09-09T06:10:53.710Z,83.00
2017-09-09T06:11:53.670Z,81.65
2017-09-09T06:12:53.709Z,82.35
2017-09-09T06:13:53.654Z,81.36
2017-09-09T06:14:53.715Z,80.93
2017-09-09T06:15:53.685Z,79.57
2017-09-09T06:16:53.722Z,79.76
2017-09-09T06:17:53.673Z,79.14
2017-09-09T06:18:53.624Z,79.58
2017-09-09T06:19:54.873Z,78.29
2017-09-09T06:20:55.027Z,78.43
2017-09-09T06:21:54.872Z,77.92
2017-09-09T06:22:54.920Z,78.03
2017-09-09T06:23:54.968Z,78.22
2017-09-09T06:24:55.011Z,78.22
2017-09-09T06:25:53.681Z,78.33
2017-09-09T06:26:53.725Z,78.21
2017-09-09T06:27:53.684Z,78.50
2017-09-09T06:28:53.751Z,77.80
2017-09-09T06:29:53.707Z,78.65
2017-09-09T06:30:53.874Z,78.38
2017-09-09T06:31:53.735Z,77.80
2017-09-09T06:32:53.710Z,78.06
2017-09-09T06:33:53.764Z,78.75
2017-09-09T06:34:53.746Z,77.15
2017-09-09T06:35:53.781Z,76.61
2017-09-09T06:36:53.736Z,76.53
2017-09-09T06:37:53.735Z,76.26
2017-09-09T06:38:55.096Z,76.64
2017-09-09T06:39:54.958Z,77.31
2017-09-09T06:40:54.415Z,77.17
2017-09-09T06:41:54.373Z,76.87
2017-09-09T06:42:53.739Z,76.52
2017-09-09T06:43:53.792Z,75.93
2017-09-09T06:44:53.857Z,76.05
2017-09-09T06:45:53.814Z,76.60
2017-09-09T06:46:53.766Z,76.50
2017-09-09T06:47:53.933Z,77.31
2017-09-09T06:48:54.069Z,75.83
2017-09-09T06:49:53.822Z,75.77
2017-09-09T06:50:53.815Z,75.91
2017-09-09T06:51:53.784Z,76.07
2017-09-09T06:52:53.862Z,75.38
2017-09-09T06:53:53.813Z,75.52
2017-09-09T06:54:53.854Z,76.42
2017-09-09T06:55:53.794Z,76.43
2017-09-09T06:56:55.038Z,76.63
2017-09-09T06:57:55.007Z,75.67
2017-09-09T06:58:54.447Z,75.21
2017-09-09T06:59:53.783Z,74.89
2017-09-09T07:00:53.846Z,75.41
2017-09-09T07:01:53.794Z,75.58
2017-09-09T07:02:53.842Z,74.78
2017-09-09T07:03:53.884Z,75.03
2017-09-09T07:04:53.825Z,75.29
2017-09-09T07:05:53.871Z,75.72
2017-09-09T07:06:53.818Z,76.29
2017-09-09T07:07:53.862Z,74.97
2017-09-09T07:08:53.819Z,75.66
2017-09-09T07:09:53.870Z,76.08
2017-09-09T07:10:53.834Z,75.88
2017-09-09T07:11:53.877Z,75.39
2017-09-09T07:12:53.818Z,75.75
2017-09-09T07:13:55.092Z,75.93
2017-09-09T07:14:55.135Z,76.24
2017-09-09T07:15:54.473Z,76.36
2017-09-09T07:16:54.512Z,76.47
2017-09-09T07:17:53.851Z,75.97
2017-09-09T07:18:53.889Z,75.35
2017-09-09T07:19:53.843Z,75.37
2017-09-09T07:20:53.899Z,75.98
2017-09-09T07:21:53.851Z,76.01
2017-09-09T07:22:53.921Z,75.87
2017-09-09T07:23:53.933Z,76.53
2017-09-09T07:24:53.907Z,76.32
2017-09-09T07:25:53.905Z,76.64
2017-09-09T07:26:53.936Z,76.10
2017-09-09T07:27:53.955Z,76.45
2017-09-09T07:28:53.885Z,76.10
2017-09-09T07:29:53.948Z,76.86
2017-09-09T07:30:53.930Z,76.99
2017-09-09T07:31:55.118Z,77.41
2017-09-09T07:32:55.205Z,77.82
2017-09-09T07:33:54.545Z,79.00
2017-09-09T07:34:54.586Z,77.19
2017-09-09T07:35:53.968Z,77.18
2017-09-09T07:36:53.918Z,77.66
2017-09-09T07:37:53.976Z,77.01
2017-09-09T07:38:53.913Z,77.85
2017-09-09T07:39:53.953Z,76.15
2017-09-09T07:40:53.999Z,76.76
2017-09-09T07:41:53.989Z,77.63
2017-09-09T07:42:53.936Z,76.67
2017-09-09T07:43:53.987Z,76.22
2017-09-09T07:44:54.032Z,75.68
2017-09-09T07:45:53.997Z,75.63
2017-09-09T07:46:53.938Z,75.86
2017-09-09T07:47:53.978Z,76.06
2017-09-09T07:48:55.326Z,76.53
2017-09-09T07:49:55.184Z,77.12
2017-09-09T07:50:54.624Z,77.03
2017-09-09T07:51:53.980Z,77.04
2017-09-09T07:52:54.044Z,76.87
2017-09-09T07:53:53.996Z,77.44
2017-09-09T07:54:53.957Z,76.83
2017-09-09T07:55:54.161Z,76.60
2017-09-09T07:56:54.042Z,76.37
2017-09-09T07:57:53.987Z,76.13
2017-09-09T07:58:53.982Z,77.03
2017-09-09T07:59:54.041Z,77.58
2017-09-09T08:00:54.021Z,76.49
2017-09-09T08:01:54.068Z,76.05
2017-09-09T08:02:54.022Z,75.89
2017-09-09T08:03:54.061Z,75.99
2017-09-09T08:04:54.003Z,76.12
2017-09-09T08:05:55.448Z,76.64
2017-09-09T08:06:55.290Z,77.30
2017-09-09T08:07:55.387Z,77.32
2017-09-09T08:08:54.719Z,77.41
2017-09-09T08:09:54.664Z,78.31
2017-09-09T08:10:54.805Z,77.53
2017-09-09T08:11:54.039Z,77.41
2017-09-09T08:12:54.077Z,76.66
2017-09-09T08:13:54.020Z,76.58
2017-09-09T08:14:54.061Z,77.51
2017-09-09T08:15:54.102Z,76.68
2017-09-09T08:16:54.150Z,76.85
2017-09-09T08:17:54.094Z,76.53
2017-09-09T08:18:54.149Z,76.08
2017-09-09T08:19:54.108Z,75.85
2017-09-09T08:20:54.104Z,76.08
2017-09-09T08:21:54.104Z,77.41
2017-09-09T08:22:54.101Z,76.81
2017-09-09T08:23:54.091Z,76.36
2017-09-09T08:24:54.070Z,76.44
2017-09-09T08:25:55.307Z,76.87
2017-09-09T08:26:54.788Z,76.61
2017-09-09T08:27:54.734Z,76.41
2017-09-09T08:28:54.117Z,76.65
2017-09-09T08:29:54.198Z,77.06
2017-09-09T08:30:54.213Z,76.08
2017-09-09T08:31:54.167Z,77.28
2017-09-09T08:32:54.133Z,76.11
2017-09-09T08:33:54.089Z,76.93
2017-09-09T08:34:54.156Z,76.33
2017-09-09T08:35:54.169Z,75.74
2017-09-09T08:36:54.120Z,74.92
2017-09-09T08:37:54.104Z,75.38
2017-09-09T08:38:54.150Z,75.50
2017-09-09T08:39:54.120Z,74.96
2017-09-09T08:40:54.176Z,75.14
2017-09-09T08:41:54.132Z,75.02
2017-09-09T08:42:55.390Z,74.31
2017-09-09T08:43:54.029Z,75.28
2017-09-09T08:44:54.792Z,75.88
2017-09-09T08:45:54.848Z,74.42
2017-09-09T08:46:54.201Z,74.53
2017-09-09T08:47:54.902Z,73.59
2017-09-09T08:48:54.167Z,74.06
2017-09-09T08:49:54.218Z,73.62
2017-09-09T08:50:54.234Z,74.65
2017-09-09T08:51:54.189Z,73.29
2017-09-09T08:52:54.234Z,73.54
2017-09-09T08:53:54.215Z,74.46
2017-09-09T08:54:54.387Z,74.35
2017-09-09T08:55:54.159Z,74.62
2017-09-09T08:56:54.235Z,75.06
2017-09-09T08:57:54.325Z,74.38
2017-09-09T08:58:54.220Z,74.20
2017-09-09T08:59:55.505Z,75.29
2017-09-09T09:00:55.398Z,73.46
2017-09-09T09:01:55.469Z,73.39
2017-09-09T09:02:54.840Z,72.76
2017-09-09T09:03:54.894Z,73.71
2017-09-09T09:04:54.945Z,74.25
2017-09-09T09:05:54.302Z,73.84
2017-09-09T09:06:54.305Z,73.45
2017-09-09T09:07:54.217Z,73.35
2017-09-09T09:08:54.279Z,72.89
2017-09-09T09:09:54.249Z,72.45
2017-09-09T09:10:54.216Z,71.88
2017-09-09T09:11:54.272Z,73.49
2017-09-09T09:12:54.259Z,73.66
2017-09-09T09:13:54.646Z,72.98
2017-09-09T09:14:54.259Z,73.66
2017-09-09T09:15:54.274Z,73.28
2017-09-09T09:16:54.465Z,74.67
2017-09-09T09:17:54.249Z,72.15
2017-09-09T09:18:55.602Z,72.88
2017-09-09T09:19:54.875Z,72.74
2017-09-09T09:20:54.926Z,72.95
2017-09-09T09:21:55.589Z,72.92
2017-09-09T09:22:54.335Z,73.05
2017-09-09T09:23:54.306Z,72.44
2017-09-09T09:24:54.378Z,72.55
2017-09-09T09:25:54.253Z,71.76
2017-09-09T09:26:54.348Z,71.91
2017-09-09T09:27:54.328Z,72.21
2017-09-09T09:28:54.355Z,72.98
2017-09-09T09:29:54.314Z,72.64
2017-09-09T09:30:54.385Z,71.79
2017-09-09T09:31:54.360Z,71.25
2017-09-09T09:32:54.334Z,71.37
2017-09-09T09:33:54.384Z,71.59
2017-09-09T09:34:54.331Z,72.49
2017-09-09T09:35:54.281Z,73.06
2017-09-09T09:36:55.662Z,72.56
2017-09-09T09:37:55.863Z,71.02
2017-09-09T09:38:55.002Z,72.35
2017-09-09T09:39:54.357Z,73.20
2017-09-09T09:40:55.738Z,73.59
2017-09-09T09:41:54.375Z,72.68
2017-09-09T09:42:54.339Z,73.12
2017-09-09T09:43:54.385Z,73.01
2017-09-09T09:44:54.428Z,74.19
2017-09-09T09:45:55.151Z,73.30
2017-09-09T09:46:55.266Z,74.13
2017-09-09T09:47:55.099Z,75.00
2017-09-09T09:48:55.072Z,75.14
2017-09-09T09:49:55.071Z,74.24
2017-09-09T09:50:55.270Z,76.33
2017-09-09T09:51:55.272Z,76.07
2017-09-09T09:52:55.735Z,75.12
2017-09-09T09:53:55.803Z,76.10
2017-09-09T09:54:55.375Z,76.07
2017-09-09T09:55:55.354Z,78.34
2017-09-09T09:56:55.027Z,77.81
2017-09-09T09:57:55.186Z,79.74
2017-09-09T09:58:54.431Z,82.10
2017-09-09T09:59:54.509Z,84.37
2017-09-09T10:00:54.510Z,84.40
2017-09-09T10:01:54.461Z,86.35
2017-09-09T10:02:54.430Z,86.38
2017-09-09T10:03:54.529Z,84.20
2017-09-09T10:04:54.479Z,87.23
2017-09-09T10:05:54.649Z,86.84
2017-09-09T10:06:54.487Z,86.12
2017-09-09T10:07:54.509Z,86.70
2017-09-09T10:08:54.605Z,86.34
2017-09-09T10:09:54.464Z,87.20
2017-09-09T10:10:54.621Z,87.99
2017-09-09T10:11:54.642Z,87.82
2017-09-09T10:12:54.559Z,88.87
2017-09-09T10:13:54.618Z,88.21
2017-09-09T10:14:54.510Z,87.74
2017-09-09T10:15:54.606Z,86.77
2017-09-09T10:16:55.940Z,87.69
2017-09-09T10:17:55.317Z,87.93
2017-09-09T10:18:55.418Z,87.61
2017-09-09T10:19:54.584Z,87.14
2017-09-09T10:20:54.540Z,86.96
2017-09-09T10:21:54.440Z,84.38
2017-09-09T10:22:54.668Z,87.03
2017-09-09T10:23:54.528Z,85.82
2017-09-09T10:24:54.760Z,84.50
2017-09-09T10:25:54.484Z,86.36
2017-09-09T10:26:54.514Z,85.98
2017-09-09T10:27:54.510Z,85.35
2017-09-09T10:28:54.479Z,84.98
2017-09-09T10:29:55.683Z,84.64
2017-09-09T10:30:55.764Z,85.66
2017-09-09T10:31:55.150Z,84.82
2017-09-09T10:32:55.133Z,85.05
2017-09-09T10:33:55.913Z,84.08
2017-09-09T10:34:54.516Z,84.61
2017-09-09T10:35:55.300Z,84.24
2017-09-09T10:36:54.660Z,83.47
2017-09-09T10:37:54.721Z,83.91
2017-09-09T10:38:54.633Z,82.92
2017-09-09T10:39:54.701Z,83.88
2017-09-09T10:40:54.586Z,84.33
2017-09-09T10:41:54.726Z,82.04
2017-09-09T10:42:54.582Z,83.74
2017-09-09T10:43:54.565Z,83.75
2017-09-09T10:44:54.830Z,84.65
2017-09-09T10:45:54.545Z,85.45
2017-09-09T10:46:55.751Z,84.24
2017-09-09T10:47:56.100Z,84.05
2017-09-09T10:48:56.008Z,81.68
2017-09-09T10:49:56.131Z,83.42
2017-09-09T10:50:54.570Z,83.55
2017-09-09T10:51:54.634Z,82.52
2017-09-09T10:52:55.333Z,83.76
2017-09-09T10:53:54.628Z,83.27
2017-09-09T10:54:54.583Z,84.21
2017-09-09T10:55:54.594Z,84.11
2017-09-09T10:56:54.601Z,81.81
2017-09-09T10:57:54.637Z,82.11
2017-09-09T10:58:54.612Z,83.88
2017-09-09T10:59:54.601Z,82.65
2017-09-09T11:00:54.609Z,81.73
2017-09-09T11:01:54.635Z,82.09
2017-09-09T11:02:54.640Z,80.11
2017-09-09T11:03:54.601Z,81.18
2017-09-09T11:04:54.627Z,82.21
2017-09-09T11:05:55.857Z,81.68
2017-09-09T11:06:55.879Z,82.68
2017-09-09T11:07:55.436Z,82.54
2017-09-09T11:08:54.646Z,82.83
2017-09-09T11:09:54.697Z,83.50
2017-09-09T11:10:54.647Z,81.87
2017-09-09T11:11:54.768Z,81.08
2017-09-09T11:12:54.686Z,81.83
2017-09-09T11:13:55.951Z,82.25
2017-09-09T11:14:54.727Z,82.27
2017-09-09T11:15:54.659Z,81.08
2017-09-09T11:16:54.702Z,80.09
2017-09-09T11:17:54.897Z,79.96
2017-09-09T11:18:54.674Z,79.61
2017-09-09T11:19:54.948Z,80.34
2017-09-09T11:20:54.826Z,78.94
2017-09-09T11:21:54.823Z,79.30
2017-09-09T11:22:55.035Z,79.26
2017-09-09T11:23:54.767Z,79.57
2017-09-09T11:24:56.213Z,80.02
2017-09-09T11:25:56.084Z,76.64
2017-09-09T11:26:55.769Z,76.92
2017-09-09T11:27:54.718Z,76.82
2017-09-09T11:28:54.704Z,78.95
2017-09-09T11:29:54.687Z,79.19
2017-09-09T11:30:54.818Z,79.09
2017-09-09T11:31:54.733Z,77.53
2017-09-09T11:32:54.747Z,77.80
2017-09-09T11:33:54.754Z,77.88
2017-09-09T11:34:54.753Z,78.84
2017-09-09T11:35:54.785Z,77.59
2017-09-09T11:36:54.997Z,77.80
2017-09-09T11:37:54.758Z,78.39
2017-09-09T11:38:54.750Z,77.32
2017-09-09T11:39:54.707Z,79.04
2017-09-09T11:40:56.001Z,79.84
2017-09-09T11:41:55.324Z,77.77
2017-09-09T11:42:56.051Z,78.37
2017-09-09T11:43:55.420Z,77.22
2017-09-09T11:44:56.283Z,77.88
2017-09-09T11:45:55.526Z,76.88
2017-09-09T11:46:54.886Z,76.34
2017-09-09T11:47:54.861Z,77.77
2017-09-09T11:48:54.893Z,77.39
2017-09-09T11:49:54.859Z,78.38
2017-09-09T11:50:54.933Z,77.20
2017-09-09T11:51:54.803Z,76.26
2017-09-09T11:52:54.765Z,75.87
2017-09-09T11:53:54.930Z,75.99
2017-09-09T11:54:54.793Z,76.62
2017-09-09T11:55:54.857Z,76.83
2017-09-09T11:56:54.818Z,77.19
2017-09-09T11:57:55.650Z,77.78
2017-09-09T11:58:55.751Z,77.83
2017-09-09T11:59:56.149Z,76.15
2017-09-09T12:00:55.416Z,76.07
2017-09-09T12:01:55.491Z,75.92
2017-09-09T12:02:54.826Z,75.79
2017-09-09T12:03:54.836Z,76.76
2017-09-09T12:04:54.791Z,76.78
2017-09-09T12:05:54.787Z,76.18
2017-09-09T12:06:54.799Z,77.62
2017-09-09T12:07:54.896Z,78.06
2017-09-09T12:08:55.041Z,78.16
2017-09-09T12:09:54.770Z,77.51
2017-09-09T12:10:55.132Z,76.79
2017-09-09T12:11:54.999Z,76.90
2017-09-09T12:12:54.909Z,77.39
2017-09-09T12:13:54.913Z,77.24
2017-09-09T12:14:54.871Z,75.52
2017-09-09T12:15:56.159Z,76.97
2017-09-09T12:16:55.790Z,74.67
2017-09-09T12:17:56.394Z,73.69
2017-09-09T12:18:55.497Z,75.41
2017-09-09T12:19:54.855Z,75.05
2017-09-09T12:20:55.675Z,74.62
2017-09-09T12:21:54.837Z,75.64
2017-09-09T12:22:55.047Z,73.62
2017-09-09T12:23:54.923Z,74.24
2017-09-09T12:24:54.988Z,73.81
2017-09-09T12:25:54.966Z,73.17
2017-09-09T12:26:55.039Z,71.38
2017-09-09T12:27:54.872Z,69.84
2017-09-09T12:28:56.171Z,70.24
2017-09-09T12:29:54.947Z,70.43
2017-09-09T12:30:57.686Z,71.18
2017-09-09T12:31:55.083Z,71.80
2017-09-09T12:32:56.183Z,72.21
2017-09-09T12:33:56.170Z,72.04
2017-09-09T12:34:56.150Z,69.91
2017-09-09T12:35:55.551Z,69.54
2017-09-09T12:36:55.543Z,69.88
2017-09-09T12:37:54.968Z,69.38
2017-09-09T12:38:55.022Z,68.69
2017-09-09T12:39:54.977Z,69.15
2017-09-09T12:40:54.932Z,69.24
2017-09-09T12:41:54.996Z,70.83
2017-09-09T12:42:54.955Z,71.04
2017-09-09T12:43:54.943Z,70.42
2017-09-09T12:44:55.014Z,70.70
2017-09-09T12:45:54.997Z,70.06
2017-09-09T12:46:54.955Z,71.10
2017-09-09T12:47:54.959Z,72.29
2017-09-09T12:48:54.999Z,71.98
2017-09-09T12:49:55.073Z,73.08
2017-09-09T12:50:55.125Z,72.95
2017-09-09T12:51:54.982Z,72.67